Wake Island, Hawaii
Current Conditions -  °F | °C
As of 3:58 PM on Wednesday 28 Jan 2015 (Local Time) from PWAK Reporting Station
Few Clouds Few Clouds  
Wind Chill: 81°   Ceiling: Unl
Heat Index: 85°   Visibility: 6mi
Dew Point: 71°   Wind: 24mph
Humidity: 70%   Direction: 100°E
Pressure: 29.88"   Gusts: 35mph
Location:  19.2833°N, 166.6°E
Report Text: PWAK 290358Z AUTO 10021G30KT 9999 FEW023 27/21 A2988 RMK AO2 PK WND 09031/04 SLP125 T02730214 10033
Loading
Personal Weather Stations






























Interactive Weather Map New forecast layout! Learn more

10-Day Weather Forecast

Advertisements
Track Severe Weather on mobile